sensor_id;sensor_type;location;lat;lon;timestamp;pressure;altitude;pressure_sealevel;temperature;humidity
25944;BME280;13742;49.306;8.636;2023-04-23T00:00:19;99854.61;;;14.88;86.44
25944;BME280;13742;49.306;8.636;2023-04-23T00:01:19;99856.00;;;14.88;86.26
25944;BME280;13742;49.306;8.636;2023-04-23T00:02:21;99852.63;;;14.85;86.00
25944;BME280;13742;49.306;8.636;2023-04-23T00:03:20;99856.52;;;14.84;85.42
25944;BME280;13742;49.306;8.636;2023-04-23T00:04:19;99858.61;;;14.84;86.01
25944;BME280;13742;49.306;8.636;2023-04-23T00:05:19;99853.20;;;14.82;86.73
25944;BME280;13742;49.306;8.636;2023-04-23T00:06:21;99856.17;;;14.82;87.38
25944;BME280;13742;49.306;8.636;2023-04-23T00:07:21;99853.08;;;14.80;85.86
25944;BME280;13742;49.306;8.636;2023-04-23T00:08:19;99853.64;;;14.79;86.54
25944;BME280;13742;49.306;8.636;2023-04-23T00:09:19;99851.04;;;14.79;87.13
25944;BME280;13742;49.306;8.636;2023-04-23T00:10:19;99849.77;;;14.77;86.56
25944;BME280;13742;49.306;8.636;2023-04-23T00:11:20;99854.80;;;14.76;86.92
25944;BME280;13742;49.306;8.636;2023-04-23T00:12:20;99856.42;;;14.74;86.37
25944;BME280;13742;49.306;8.636;2023-04-23T00:13:20;99856.03;;;14.74;86.98
25944;BME280;13742;49.306;8.636;2023-04-23T00:14:19;99853.97;;;14.73;87.00
25944;BME280;13742;49.306;8.636;2023-04-23T00:15:21;99856.63;;;14.71;88.02
25944;BME280;13742;49.306;8.636;2023-04-23T00:16:20;99859.80;;;14.70;87.28
25944;BME280;13742;49.306;8.636;2023-04-23T00:17:19;99861.30;;;14.69;86.70
25944;BME280;13742;49.306;8.636;2023-04-23T00:18:20;99858.08;;;14.66;86.53
25944;BME280;13742;49.306;8.636;2023-04-23T00:19:19;99857.91;;;14.64;86.49
25944;BME280;13742;49.306;8.636;2023-04-23T00:20:19;99857.46;;;14.63;86.64
25944;BME280;13742;49.306;8.636;2023-04-23T00:21:19;99859.75;;;14.62;85.97
25944;BME280;13742;49.306;8.636;2023-04-23T00:22:19;99857.97;;;14.60;85.46
25944;BME280;13742;49.306;8.636;2023-04-23T00:23:19;99859.14;;;14.60;86.00
25944;BME280;13742;49.306;8.636;2023-04-23T00:24:19;99864.89;;;14.58;85.41
25944;BME280;13742;49.306;8.636;2023-04-23T00:25:20;99863.13;;;14.58;85.30
25944;BME280;13742;49.306;8.636;2023-04-23T00:26:19;99865.56;;;14.58;86.05
25944;BME280;13742;49.306;8.636;2023-04-23T00:27:20;99862.63;;;14.58;86.46
25944;BME280;13742;49.306;8.636;2023-04-23T00:28:19;99862.69;;;14.57;86.59
25944;BME280;13742;49.306;8.636;2023-04-23T00:29:19;99863.41;;;14.57;86.41
25944;BME280;13742;49.306;8.636;2023-04-23T00:30:19;99860.86;;;14.56;87.57
25944;BME280;13742;49.306;8.636;2023-04-23T00:31:21;99864.34;;;14.56;86.34
25944;BME280;13742;49.306;8.636;2023-04-23T00:32:21;99862.58;;;14.55;87.30
25944;BME280;13742;49.306;8.636;2023-04-23T00:33:19;99862.30;;;14.55;87.44
25944;BME280;13742;49.306;8.636;2023-04-23T00:34:19;99861.69;;;14.54;87.41
25944;BME280;13742;49.306;8.636;2023-04-23T00:35:19;99863.19;;;14.53;87.50
25944;BME280;13742;49.306;8.636;2023-04-23T00:36:19;99863.84;;;14.54;88.96
25944;BME280;13742;49.306;8.636;2023-04-23T00:37:19;99865.11;;;14.53;89.19
25944;BME280;13742;49.306;8.636;2023-04-23T00:38:20;99863.06;;;14.52;88.38
25944;BME280;13742;49.306;8.636;2023-04-23T00:39:19;99866.28;;;14.52;89.38
25944;BME280;13742;49.306;8.636;2023-04-23T00:40:20;99862.63;;;14.50;88.82
25944;BME280;13742;49.306;8.636;2023-04-23T00:41:19;99864.45;;;14.50;89.07
25944;BME280;13742;49.306;8.636;2023-04-23T00:42:20;99864.52;;;14.48;88.43
25944;BME280;13742;49.306;8.636;2023-04-23T00:43:19;99866.28;;;14.47;88.70
25944;BME280;13742;49.306;8.636;2023-04-23T00:44:19;99867.39;;;14.46;89.38
25944;BME280;13742;49.306;8.636;2023-04-23T00:45:20;99864.73;;;14.46;89.27
25944;BME280;13742;49.306;8.636;2023-04-23T00:46:19;99865.13;;;14.46;89.29
25944;BME280;13742;49.306;8.636;2023-04-23T00:47:19;99863.89;;;14.44;89.44
25944;BME280;13742;49.306;8.636;2023-04-23T00:48:19;99863.96;;;14.43;88.81
25944;BME280;13742;49.306;8.636;2023-04-23T00:49:20;99865.66;;;14.41;89.34
25944;BME280;13742;49.306;8.636;2023-04-23T00:50:20;99864.00;;;14.40;89.89
25944;BME280;13742;49.306;8.636;2023-04-23T00:51:20;99861.91;;;14.39;89.71
25944;BME280;13742;49.306;8.636;2023-04-23T00:52:20;99860.91;;;14.37;89.96
25944;BME280;13742;49.306;8.636;2023-04-23T00:53:19;99863.73;;;14.36;89.62
25944;BME280;13742;49.306;8.636;2023-04-23T00:54:21;99864.41;;;14.36;89.49
25944;BME280;13742;49.306;8.636;2023-04-23T00:55:23;99861.34;;;14.34;90.32
25944;BME280;13742;49.306;8.636;2023-04-23T00:56:20;99859.19;;;14.33;90.63
25944;BME280;13742;49.306;8.636;2023-04-23T00:57:20;99856.91;;;14.30;89.58
25944;BME280;13742;49.306;8.636;2023-04-23T00:58:20;99858.80;;;14.30;90.25
25944;BME280;13742;49.306;8.636;2023-04-23T00:59:20;99859.73;;;14.29;90.35
25944;BME280;13742;49.306;8.636;2023-04-23T01:00:19;99858.08;;;14.27;90.89
25944;BME280;13742;49.306;8.636;2023-04-23T01:01:20;99863.50;;;14.28;90.86
25944;BME280;13742;49.306;8.636;2023-04-23T01:02:20;99861.39;;;14.27;90.94
25944;BME280;13742;49.306;8.636;2023-04-23T01:03:20;99864.67;;;14.27;91.24
25944;BME280;13742;49.306;8.636;2023-04-23T01:04:19;99862.68;;;14.27;91.12
25944;BME280;13742;49.306;8.636;2023-04-23T01:05:19;99866.09;;;14.27;91.43
25944;BME280;13742;49.306;8.636;2023-04-23T01:06:20;99863.73;;;14.26;91.15
25944;BME280;13742;49.306;8.636;2023-04-23T01:07:19;99863.50;;;14.25;90.85
25944;BME280;13742;49.306;8.636;2023-04-23T01:08:19;99864.16;;;14.25;91.74
25944;BME280;13742;49.306;8.636;2023-04-23T01:09:20;99863.60;;;14.24;91.99
25944;BME280;13742;49.306;8.636;2023-04-23T01:10:20;99862.66;;;14.23;91.57
25944;BME280;13742;49.306;8.636;2023-04-23T01:11:19;99867.47;;;14.23;91.63
25944;BME280;13742;49.306;8.636;2023-04-23T01:12:19;99869.64;;;14.22;91.57
25944;BME280;13742;49.306;8.636;2023-04-23T01:13:21;99868.37;;;14.21;91.93
25944;BME280;13742;49.306;8.636;2023-04-23T01:14:19;99871.03;;;14.20;91.79
25944;BME280;13742;49.306;8.636;2023-04-23T01:15:19;99870.73;;;14.19;92.21
25944;BME280;13742;49.306;8.636;2023-04-23T01:16:19;99872.41;;;14.19;92.29
25944;BME280;13742;49.306;8.636;2023-04-23T01:17:20;99872.41;;;14.19;92.51
25944;BME280;13742;49.306;8.636;2023-04-23T01:18:20;99872.40;;;14.18;91.75
25944;BME280;13742;49.306;8.636;2023-04-23T01:19:19;99875.06;;;14.18;92.26
25944;BME280;13742;49.306;8.636;2023-04-23T01:20:19;99874.05;;;14.17;92.24
25944;BME280;13742;49.306;8.636;2023-04-23T01:21:20;99873.72;;;14.15;92.70
25944;BME280;13742;49.306;8.636;2023-04-23T01:22:19;99875.48;;;14.15;92.77
25944;BME280;13742;49.306;8.636;2023-04-23T01:23:19;99872.17;;;14.14;93.50
25944;BME280;13742;49.306;8.636;2023-04-23T01:24:19;99870.00;;;14.13;93.12
25944;BME280;13742;49.306;8.636;2023-04-23T01:25:19;99872.64;;;14.12;92.65
25944;BME280;13742;49.306;8.636;2023-04-23T01:26:20;99873.80;;;14.12;92.89
25944;BME280;13742;49.306;8.636;2023-04-23T01:27:19;99871.47;;;14.12;92.91
25944;BME280;13742;49.306;8.636;2023-04-23T01:28:19;99872.69;;;14.12;93.14
25944;BME280;13742;49.306;8.636;2023-04-23T01:29:20;99869.30;;;14.10;93.18
25944;BME280;13742;49.306;8.636;2023-04-23T01:30:20;99871.80;;;14.10;93.42
25944;BME280;13742;49.306;8.636;2023-04-23T01:31:19;99874.84;;;14.10;93.26
25944;BME280;13742;49.306;8.636;2023-04-23T01:32:19;99874.02;;;14.09;93.96
25944;BME280;13742;49.306;8.636;2023-04-23T01:33:19;99874.83;;;14.08;93.87
25944;BME280;13742;49.306;8.636;2023-04-23T01:34:20;99871.52;;;14.07;93.72
25944;BME280;13742;49.306;8.636;2023-04-23T01:35:19;99871.90;;;14.06;93.72
25944;BME280;13742;49.306;8.636;2023-04-23T01:36:21;99873.39;;;14.06;93.95
25944;BME280;13742;49.306;8.636;2023-04-23T01:37:20;99877.92;;;14.05;93.38
25944;BME280;13742;49.306;8.636;2023-04-23T01:38:19;99877.55;;;14.05;93.90
25944;BME280;13742;49.306;8.636;2023-04-23T01:39:19;99875.28;;;14.03;93.71
25944;BME280;13742;49.306;8.636;2023-04-23T01:40:20;99878.16;;;14.03;93.26
25944;BME280;13742;49.306;8.636;2023-04-23T01:41:19;99880.86;;;14.02;93.61
25944;BME280;13742;49.306;8.636;2023-04-23T01:42:20;99874.66;;;14.01;94.02
25944;BME280;13742;49.306;8.636;2023-04-23T01:43:19;99879.42;;;14.01;94.31
25944;BME280;13742;49.306;8.636;2023-04-23T01:44:19;99882.18;;;14.01;93.88
25944;BME280;13742;49.306;8.636;2023-04-23T01:45:19;99881.67;;;14.00;93.80
25944;BME280;13742;49.306;8.636;2023-04-23T01:46:20;99881.91;;;14.00;93.98
25944;BME280;13742;49.306;8.636;2023-04-23T01:47:19;99881.63;;;13.99;94.28
25944;BME280;13742;49.306;8.636;2023-04-23T01:48:19;99878.85;;;13.98;94.06
25944;BME280;13742;49.306;8.636;2023-04-23T01:49:19;99880.97;;;13.98;94.23
25944;BME280;13742;49.306;8.636;2023-04-23T01:50:22;99879.46;;;13.98;94.72
25944;BME280;13742;49.306;8.636;2023-04-23T01:51:19;99881.30;;;13.98;94.88
25944;BME280;13742;49.306;8.636;2023-04-23T01:52:19;99883.44;;;13.99;95.24
25944;BME280;13742;49.306;8.636;2023-04-23T01:53:19;99883.39;;;13.98;95.03
25944;BME280;13742;49.306;8.636;2023-04-23T01:54:20;99884.55;;;13.98;95.35
25944;BME280;13742;49.306;8.636;2023-04-23T01:55:19;99889.98;;;13.97;94.88
25944;BME280;13742;49.306;8.636;2023-04-23T01:56:21;99885.44;;;13.96;94.36
25944;BME280;13742;49.306;8.636;2023-04-23T01:57:23;99886.05;;;13.97;95.17
25944;BME280;13742;49.306;8.636;2023-04-23T01:58:20;99886.50;;;13.96;95.46
25944;BME280;13742;49.306;8.636;2023-04-23T01:59:22;99887.09;;;13.93;95.72
25944;BME280;13742;49.306;8.636;2023-04-23T02:00:19;99889.69;;;13.94;96.29
25944;BME280;13742;49.306;8.636;2023-04-23T02:01:19;99888.56;;;13.90;97.23
25944;BME280;13742;49.306;8.636;2023-04-23T02:02:20;99886.81;;;13.91;96.66
25944;BME280;13742;49.306;8.636;2023-04-23T02:03:19;99884.80;;;13.91;96.60
25944;BME280;13742;49.306;8.636;2023-04-23T02:04:19;99890.96;;;13.91;96.60
25944;BME280;13742;49.306;8.636;2023-04-23T02:05:19;99890.02;;;13.91;95.85
25944;BME280;13742;49.306;8.636;2023-04-23T02:06:19;99893.00;;;13.91;95.99
25944;BME280;13742;49.306;8.636;2023-04-23T02:07:19;99891.84;;;13.91;95.78
25944;BME280;13742;49.306;8.636;2023-04-23T02:08:19;99891.62;;;13.90;97.84
25944;BME280;13742;49.306;8.636;2023-04-23T02:09:20;99897.42;;;13.88;97.54
25944;BME280;13742;49.306;8.636;2023-04-23T02:10:19;99893.65;;;13.87;96.77
25944;BME280;13742;49.306;8.636;2023-04-23T02:11:19;99894.38;;;13.87;97.05
25944;BME280;13742;49.306;8.636;2023-04-23T02:12:19;99893.72;;;13.87;97.17
25944;BME280;13742;49.306;8.636;2023-04-23T02:13:19;99893.66;;;13.86;96.78
25944;BME280;13742;49.306;8.636;2023-04-23T02:14:19;99894.96;;;13.85;97.28
25944;BME280;13742;49.306;8.636;2023-04-23T02:15:20;99899.50;;;13.85;96.85
25944;BME280;13742;49.306;8.636;2023-04-23T02:16:19;99897.08;;;13.84;97.15
25944;BME280;13742;49.306;8.636;2023-04-23T02:17:20;99894.70;;;13.83;98.04
25944;BME280;13742;49.306;8.636;2023-04-23T02:18:19;99898.02;;;13.83;98.17
25944;BME280;13742;49.306;8.636;2023-04-23T02:19:19;99893.34;;;13.80;98.36
25944;BME280;13742;49.306;8.636;2023-04-23T02:20:20;99898.79;;;13.82;98.25
25944;BME280;13742;49.306;8.636;2023-04-23T02:21:20;99893.84;;;13.77;98.95
25944;BME280;13742;49.306;8.636;2023-04-23T02:22:21;99900.42;;;13.79;98.63
25944;BME280;13742;49.306;8.636;2023-04-23T02:23:19;99899.25;;;13.78;98.38
25944;BME280;13742;49.306;8.636;2023-04-23T02:24:19;99894.45;;;13.77;98.45
25944;BME280;13742;49.306;8.636;2023-04-23T02:25:20;99897.71;;;13.77;98.19
25944;BME280;13742;49.306;8.636;2023-04-23T02:26:21;99898.38;;;13.77;98.63
25944;BME280;13742;49.306;8.636;2023-04-23T02:27:19;99897.66;;;13.76;98.34
25944;BME280;13742;49.306;8.636;2023-04-23T02:28:19;99897.66;;;13.76;97.88
25944;BME280;13742;49.306;8.636;2023-04-23T02:29:20;99900.36;;;13.75;98.24
25944;BME280;13742;49.306;8.636;2023-04-23T02:30:20;99898.70;;;13.74;98.40
25944;BME280;13742;49.306;8.636;2023-04-23T02:31:19;99899.98;;;13.75;97.91
25944;BME280;13742;49.306;8.636;2023-04-23T02:32:19;99901.08;;;13.75;98.48
25944;BME280;13742;49.306;8.636;2023-04-23T02:33:19;99897.66;;;13.75;98.39
25944;BME280;13742;49.306;8.636;2023-04-23T02:34:19;99897.92;;;13.75;98.28
25944;BME280;13742;49.306;8.636;2023-04-23T02:35:20;99900.69;;;13.75;98.29
25944;BME280;13742;49.306;8.636;2023-04-23T02:36:19;99897.05;;;13.73;97.94
25944;BME280;13742;49.306;8.636;2023-04-23T02:37:20;99901.73;;;13.71;98.09
25944;BME280;13742;49.306;8.636;2023-04-23T02:38:19;99899.28;;;13.68;98.99
25944;BME280;13742;49.306;8.636;2023-04-23T02:39:19;99901.12;;;13.70;98.91
25944;BME280;13742;49.306;8.636;2023-04-23T02:40:19;99902.10;;;13.70;99.09
25944;BME280;13742;49.306;8.636;2023-04-23T02:41:20;99901.05;;;13.69;98.74
25944;BME280;13742;49.306;8.636;2023-04-23T02:42:19;99896.62;;;13.67;98.59
25944;BME280;13742;49.306;8.636;2023-04-23T02:43:19;99896.69;;;13.68;98.51
25944;BME280;13742;49.306;8.636;2023-04-23T02:44:19;99896.68;;;13.66;98.57
25944;BME280;13742;49.306;8.636;2023-04-23T02:45:19;99899.89;;;13.66;98.70
25944;BME280;13742;49.306;8.636;2023-04-23T02:46:19;99903.53;;;13.63;98.25
25944;BME280;13742;49.306;8.636;2023-04-23T02:47:19;99905.96;;;13.63;99.10
25944;BME280;13742;49.306;8.636;2023-04-23T02:48:21;99901.64;;;13.63;98.96
25944;BME280;13742;49.306;8.636;2023-04-23T02:49:19;99899.53;;;13.64;98.78
25944;BME280;13742;49.306;8.636;2023-04-23T02:50:19;99902.31;;;13.63;98.63
25944;BME280;13742;49.306;8.636;2023-04-23T02:51:19;99907.13;;;13.63;98.21
25944;BME280;13742;49.306;8.636;2023-04-23T02:52:19;99902.08;;;13.64;98.21
25944;BME280;13742;49.306;8.636;2023-04-23T02:53:19;99906.13;;;13.62;98.51
25944;BME280;13742;49.306;8.636;2023-04-23T02:54:19;99906.55;;;13.62;98.78
25944;BME280;13742;49.306;8.636;2023-04-23T02:55:19;99904.95;;;13.62;99.50
25944;BME280;13742;49.306;8.636;2023-04-23T02:56:19;99907.76;;;13.61;99.25
25944;BME280;13742;49.306;8.636;2023-04-23T02:57:20;99906.05;;;13.61;99.25
25944;BME280;13742;49.306;8.636;2023-04-23T02:58:19;99907.48;;;13.58;99.24
25944;BME280;13742;49.306;8.636;2023-04-23T02:59:19;99907.20;;;13.58;99.36
25944;BME280;13742;49.306;8.636;2023-04-23T03:00:19;99907.64;;;13.57;99.86
25944;BME280;13742;49.306;8.636;2023-04-23T03:01:19;99905.03;;;13.56;100.00
25944;BME280;13742;49.306;8.636;2023-04-23T03:02:19;99902.48;;;13.55;100.00
25944;BME280;13742;49.306;8.636;2023-04-23T03:03:19;99901.22;;;13.55;100.00
25944;BME280;13742;49.306;8.636;2023-04-23T03:04:19;99896.84;;;13.55;100.00
25944;BME280;13742;49.306;8.636;2023-04-23T03:05:19;99898.34;;;13.56;100.00
25944;BME280;13742;49.306;8.636;2023-04-23T03:06:19;99893.41;;;13.54;100.00
25944;BME280;13742;49.306;8.636;2023-04-23T03:07:19;99892.41;;;13.50;100.00
25944;BME280;13742;49.306;8.636;2023-04-23T03:08:19;99893.35;;;13.51;100.00
25944;BME280;13742;49.306;8.636;2023-04-23T03:09:19;99892.63;;;13.50;100.00
25944;BME280;13742;49.306;8.636;2023-04-23T03:10:19;99893.90;;;13.50;100.00
25944;BME280;13742;49.306;8.636;2023-04-23T03:11:20;99894.56;;;13.50;99.95
25944;BME280;13742;49.306;8.636;2023-04-23T03:12:19;99891.84;;;13.50;100.00
25944;BME280;13742;49.306;8.636;2023-04-23T03:13:19;99889.80;;;13.48;100.00
25944;BME280;13742;49.306;8.636;2023-04-23T03:14:19;99890.45;;;13.47;99.95
25944;BME280;13742;49.306;8.636;2023-04-23T03:15:19;99890.60;;;13.46;100.00
25944;BME280;13742;49.306;8.636;2023-04-23T03:16:19;99889.27;;;13.44;100.00
25944;BME280;13742;49.306;8.636;2023-04-23T03:17:19;99889.77;;;13.46;99.99
25944;BME280;13742;49.306;8.636;2023-04-23T03:18:19;99890.38;;;13.43;100.00
25944;BME280;13742;49.306;8.636;2023-04-23T03:19:19;99889.77;;;13.42;100.00
25944;BME280;13742;49.306;8.636;2023-04-23T03:20:19;99888.38;;;13.42;100.00
25944;BME280;13742;49.306;8.636;2023-04-23T03:21:19;99886.16;;;13.41;100.00
25944;BME280;13742;49.306;8.636;2023-04-23T03:22:19;99890.42;;;13.40;100.00
25944;BME280;13742;49.306;8.636;2023-04-23T03:23:19;99892.56;;;13.39;100.00
25944;BME280;13742;49.306;8.636;2023-04-23T03:24:19;99895.40;;;13.39;100.00
25944;BME280;13742;49.306;8.636;2023-04-23T03:25:21;99898.38;;;13.39;100.00
25944;BME280;13742;49.306;8.636;2023-04-23T03:26:19;99893.56;;;13.39;99.93
25944;BME280;13742;49.306;8.636;2023-04-23T03:27:19;99892.72;;;13.37;99.79
25944;BME280;13742;49.306;8.636;2023-04-23T03:28:19;99891.08;;;13.37;99.80
25944;BME280;13742;49.306;8.636;2023-04-23T03:29:19;99893.72;;;13.38;99.66
25944;BME280;13742;49.306;8.636;2023-04-23T03:30:19;99893.88;;;13.37;99.45
25944;BME280;13742;49.306;8.636;2023-04-23T03:31:19;99893.75;;;13.32;99.31
25944;BME280;13742;49.306;8.636;2023-04-23T03:32:19;99895.73;;;13.31;99.43
25944;BME280;13742;49.306;8.636;2023-04-23T03:33:19;99891.98;;;13.32;99.62
25944;BME280;13742;49.306;8.636;2023-04-23T03:34:19;99894.25;;;13.32;99.26
25944;BME280;13742;49.306;8.636;2023-04-23T03:35:19;99894.14;;;13.32;98.84
25944;BME280;13742;49.306;8.636;2023-04-23T03:36:19;99897.38;;;13.28;98.96
25944;BME280;13742;49.306;8.636;2023-04-23T03:37:19;99898.20;;;13.27;99.61
25944;BME280;13742;49.306;8.636;2023-04-23T03:38:20;99895.83;;;13.27;99.56
25944;BME280;13742;49.306;8.636;2023-04-23T03:39:20;99894.92;;;13.26;99.45
25944;BME280;13742;49.306;8.636;2023-04-23T03:40:19;99889.23;;;13.25;99.40
25944;BME280;13742;49.306;8.636;2023-04-23T03:41:19;99893.27;;;13.25;98.97
25944;BME280;13742;49.306;8.636;2023-04-23T03:42:19;99894.01;;;13.19;99.01
25944;BME280;13742;49.306;8.636;2023-04-23T03:43:19;99897.43;;;13.20;99.06
25944;BME280;13742;49.306;8.636;2023-04-23T03:44:20;99899.27;;;13.20;99.20
25944;BME280;13742;49.306;8.636;2023-04-23T03:45:20;99899.70;;;13.18;98.25
25944;BME280;13742;49.306;8.636;2023-04-23T03:46:19;99898.88;;;13.18;98.39
25944;BME280;13742;49.306;8.636;2023-04-23T03:47:19;99901.12;;;13.16;98.24
25944;BME280;13742;49.306;8.636;2023-04-23T03:48:20;99900.45;;;13.16;98.51
25944;BME280;13742;49.306;8.636;2023-04-23T03:49:19;99898.17;;;13.14;97.88
25944;BME280;13742;49.306;8.636;2023-04-23T03:50:19;99904.38;;;13.15;98.39
25944;BME280;13742;49.306;8.636;2023-04-23T03:51:19;99901.41;;;13.16;98.88
25944;BME280;13742;49.306;8.636;2023-04-23T03:52:19;99897.03;;;13.16;99.23
25944;BME280;13742;49.306;8.636;2023-04-23T03:53:20;99898.72;;;13.14;98.33
25944;BME280;13742;49.306;8.636;2023-04-23T03:54:19;99902.76;;;13.13;97.72
25944;BME280;13742;49.306;8.636;2023-04-23T03:55:19;99901.98;;;13.13;97.46
25944;BME280;13742;49.306;8.636;2023-04-23T03:56:20;99906.18;;;13.12;97.46
25944;BME280;13742;49.306;8.636;2023-04-23T03:57:19;99903.24;;;13.12;96.81
25944;BME280;13742;49.306;8.636;2023-04-23T03:58:19;99906.28;;;13.11;96.68
25944;BME280;13742;49.306;8.636;2023-04-23T03:59:19;99904.19;;;13.11;96.64
25944;BME280;13742;49.306;8.636;2023-04-23T04:00:19;99907.16;;;13.12;96.63
25944;BME280;13742;49.306;8.636;2023-04-23T04:01:19;99909.38;;;13.12;96.54
25944;BME280;13742;49.306;8.636;2023-04-23T04:02:19;99909.20;;;13.12;97.39
25944;BME280;13742;49.306;8.636;2023-04-23T04:03:19;99908.53;;;13.10;96.92
25944;BME280;13742;49.306;8.636;2023-04-23T04:04:19;99907.97;;;13.09;96.16
25944;BME280;13742;49.306;8.636;2023-04-23T04:05:20;99906.64;;;13.09;95.90
25944;BME280;13742;49.306;8.636;2023-04-23T04:06:19;99906.64;;;13.09;96.00
25944;BME280;13742;49.306;8.636;2023-04-23T04:07:20;99903.39;;;13.09;95.90
25944;BME280;13742;49.306;8.636;2023-04-23T04:08:19;99902.52;;;13.09;96.13
25944;BME280;13742;49.306;8.636;2023-04-23T04:09:19;99900.41;;;13.09;95.99
25944;BME280;13742;49.306;8.636;2023-04-23T04:10:19;99903.34;;;13.08;95.72
25944;BME280;13742;49.306;8.636;2023-04-23T04:11:19;99905.38;;;13.07;95.12
25944;BME280;13742;49.306;8.636;2023-04-23T04:12:19;99905.32;;;13.08;95.65
25944;BME280;13742;49.306;8.636;2023-04-23T04:13:19;99904.37;;;13.07;95.64
25944;BME280;13742;49.306;8.636;2023-04-23T04:14:20;99905.75;;;13.07;95.75
25944;BME280;13742;49.306;8.636;2023-04-23T04:15:19;99907.35;;;13.07;95.57
25944;BME280;13742;49.306;8.636;2023-04-23T04:16:19;99909.45;;;13.06;95.44
25944;BME280;13742;49.306;8.636;2023-04-23T04:17:19;99908.62;;;13.05;95.71
25944;BME280;13742;49.306;8.636;2023-04-23T04:18:19;99904.73;;;13.03;95.58
25944;BME280;13742;49.306;8.636;2023-04-23T04:19:19;99910.81;;;13.04;96.09
25944;BME280;13742;49.306;8.636;2023-04-23T04:20:19;99909.10;;;13.04;96.75
25944;BME280;13742;49.306;8.636;2023-04-23T04:21:19;99905.02;;;13.03;96.46
25944;BME280;13742;49.306;8.636;2023-04-23T04:22:19;99909.16;;;13.03;96.51
25944;BME280;13742;49.306;8.636;2023-04-23T04:23:19;99908.77;;;13.03;96.79
25944;BME280;13742;49.306;8.636;2023-04-23T04:24:21;99906.61;;;13.03;96.63
25944;BME280;13742;49.306;8.636;2023-04-23T04:25:21;99911.52;;;13.03;96.65
25944;BME280;13742;49.306;8.636;2023-04-23T04:26:19;99910.70;;;13.03;97.53
25944;BME280;13742;49.306;8.636;2023-04-23T04:27:19;99911.42;;;13.03;97.56
25944;BME280;13742;49.306;8.636;2023-04-23T04:28:19;99913.69;;;13.02;97.27
25944;BME280;13742;49.306;8.636;2023-04-23T04:29:20;99917.22;;;13.02;98.03
25944;BME280;13742;49.306;8.636;2023-04-23T04:30:20;99916.77;;;13.02;97.94
25944;BME280;13742;49.306;8.636;2023-04-23T04:31:21;99917.38;;;13.00;97.48
25944;BME280;13742;49.306;8.636;2023-04-23T04:32:22;99914.32;;;13.00;96.96
25944;BME280;13742;49.306;8.636;2023-04-23T04:33:20;99915.44;;;13.00;97.39
25944;BME280;13742;49.306;8.636;2023-04-23T04:34:19;99912.62;;;13.00;98.33
25944;BME280;13742;49.306;8.636;2023-04-23T04:35:19;99914.42;;;12.98;98.50
25944;BME280;13742;49.306;8.636;2023-04-23T04:36:19;99911.44;;;12.97;98.62
25944;BME280;13742;49.306;8.636;2023-04-23T04:37:22;99913.80;;;12.97;98.27
25944;BME280;13742;49.306;8.636;2023-04-23T04:38:20;99908.11;;;12.97;99.84
25944;BME280;13742;49.306;8.636;2023-04-23T04:39:19;99911.77;;;12.97;98.62
25944;BME280;13742;49.306;8.636;2023-04-23T04:40:19;99906.97;;;12.97;98.67
25944;BME280;13742;49.306;8.636;2023-04-23T04:41:21;99912.38;;;12.97;99.30
25944;BME280;13742;49.306;8.636;2023-04-23T04:42:20;99908.50;;;12.97;99.32
25944;BME280;13742;49.306;8.636;2023-04-23T04:43:19;99906.24;;;12.97;99.46
25944;BME280;13742;49.306;8.636;2023-04-23T04:44:20;99906.73;;;12.97;99.33
25944;BME280;13742;49.306;8.636;2023-04-23T04:45:19;99907.78;;;12.97;99.29
25944;BME280;13742;49.306;8.636;2023-04-23T04:46:19;99904.59;;;12.97;98.95
25944;BME280;13742;49.306;8.636;2023-04-23T04:47:19;99904.86;;;12.97;99.12
25944;BME280;13742;49.306;8.636;2023-04-23T04:48:19;99904.63;;;12.97;99.12
25944;BME280;13742;49.306;8.636;2023-04-23T04:49:20;99904.25;;;12.97;99.00
25944;BME280;13742;49.306;8.636;2023-04-23T04:50:19;99903.20;;;12.97;99.33
25944;BME280;13742;49.306;8.636;2023-04-23T04:51:19;99901.88;;;12.96;98.90
25944;BME280;13742;49.306;8.636;2023-04-23T04:52:19;99904.02;;;12.96;98.76
25944;BME280;13742;49.306;8.636;2023-04-23T04:53:19;99909.66;;;12.97;99.94
25944;BME280;13742;49.306;8.636;2023-04-23T04:54:20;99908.63;;;12.97;99.61
25944;BME280;13742;49.306;8.636;2023-04-23T04:55:19;99908.66;;;12.95;98.57
25944;BME280;13742;49.306;8.636;2023-04-23T04:56:21;99909.55;;;12.96;99.63
25944;BME280;13742;49.306;8.636;2023-04-23T04:57:21;99909.70;;;12.95;98.89
25944;BME280;13742;49.306;8.636;2023-04-23T04:58:19;99914.17;;;12.94;99.05
25944;BME280;13742;49.306;8.636;2023-04-23T04:59:19;99914.53;;;12.96;99.45
25944;BME280;13742;49.306;8.636;2023-04-23T05:00:24;99918.38;;;12.94;100.00
25944;BME280;13742;49.306;8.636;2023-04-23T05:01:20;99915.23;;;12.94;99.48
25944;BME280;13742;49.306;8.636;2023-04-23T05:02:20;99920.42;;;12.95;100.00
25944;BME280;13742;49.306;8.636;2023-04-23T05:03:19;99916.67;;;12.95;99.73
25944;BME280;13742;49.306;8.636;2023-04-23T05:04:19;99915.84;;;12.95;99.53
25944;BME280;13742;49.306;8.636;2023-04-23T05:05:19;99920.59;;;12.96;99.72
25944;BME280;13742;49.306;8.636;2023-04-23T05:06:19;99914.26;;;12.98;100.00
25944;BME280;13742;49.306;8.636;2023-04-23T05:07:19;99915.25;;;12.98;100.00
25944;BME280;13742;49.306;8.636;2023-04-23T05:08:21;99919.02;;;12.99;100.00
25944;BME280;13742;49.306;8.636;2023-04-23T05:09:19;99919.80;;;12.99;100.00
25944;BME280;13742;49.306;8.636;2023-04-23T05:10:20;99915.10;;;13.00;100.00
25944;BME280;13742;49.306;8.636;2023-04-23T05:11:19;99917.71;;;13.00;100.00
25944;BME280;13742;49.306;8.636;2023-04-23T05:12:19;99914.34;;;13.01;100.00
25944;BME280;13742;49.306;8.636;2023-04-23T05:13:19;99922.91;;;13.01;100.00
25944;BME280;13742;49.306;8.636;2023-04-23T05:14:19;99924.23;;;13.01;100.00
25944;BME280;13742;49.306;8.636;2023-04-23T05:15:19;99926.33;;;13.00;100.00
25944;BME280;13742;49.306;8.636;2023-04-23T05:16:20;99926.77;;;13.02;100.00
25944;BME280;13742;49.306;8.636;2023-04-23T05:17:19;99923.78;;;13.02;100.00